createdAt,value
2022-10-13T00:01:56.734Z,11.30
2022-10-13T00:04:24.806Z,11.20
2022-10-13T00:06:52.494Z,11.20
2022-10-13T00:09:20.167Z,11.20
2022-10-13T00:11:49.350Z,11.20
2022-10-13T00:14:17.044Z,11.30
2022-10-13T00:16:44.749Z,11.30
2022-10-13T00:19:15.063Z,11.30
2022-10-13T00:21:42.960Z,11.30
2022-10-13T00:24:11.499Z,11.30
2022-10-13T00:26:39.271Z,11.30
2022-10-13T00:29:08.279Z,11.20
2022-10-13T00:31:36.022Z,11.20
2022-10-13T00:34:03.682Z,11.20
2022-10-13T00:36:32.369Z,11.20
2022-10-13T00:39:00.065Z,11.20
2022-10-13T00:41:27.777Z,11.20
2022-10-13T00:43:59.920Z,11.20
2022-10-13T00:46:29.662Z,11.20
2022-10-13T00:48:58.253Z,11.20
2022-10-13T00:51:27.645Z,11.10
2022-10-13T00:53:56.398Z,11.10
2022-10-13T00:56:24.880Z,11.00
2022-10-13T00:58:52.910Z,11.10
2022-10-13T01:01:20.658Z,11.00
2022-10-13T01:03:49.748Z,11.00
2022-10-13T01:06:23.276Z,11.10
2022-10-13T01:08:51.671Z,11.10
2022-10-13T01:11:28.474Z,11.00
2022-10-13T01:13:59.139Z,11.00
2022-10-13T01:16:32.068Z,11.00
2022-10-13T01:19:06.560Z,11.00
2022-10-13T01:21:35.142Z,11.00
2022-10-13T01:24:12.309Z,11.00
2022-10-13T01:26:55.095Z,11.00
2022-10-13T01:29:33.465Z,10.90
2022-10-13T01:32:07.313Z,11.00
2022-10-13T01:34:37.142Z,11.00
2022-10-13T01:37:09.028Z,11.00
2022-10-13T01:39:39.207Z,11.00
2022-10-13T01:42:13.064Z,11.00
2022-10-13T01:44:42.049Z,11.00
2022-10-13T01:47:12.444Z,11.00
2022-10-13T01:49:40.994Z,11.00
2022-10-13T01:52:10.044Z,11.10
2022-10-13T01:54:37.880Z,11.00
2022-10-13T01:57:05.574Z,11.00
2022-10-13T01:59:36.308Z,11.00
2022-10-13T02:02:06.956Z,11.10
2022-10-13T02:04:43.174Z,11.10
2022-10-13T02:07:14.750Z,11.10
2022-10-13T02:09:44.805Z,11.00
2022-10-13T02:12:16.197Z,11.10
2022-10-13T02:14:46.218Z,11.00
2022-10-13T02:17:14.208Z,11.00
2022-10-13T02:19:43.518Z,11.10
2022-10-13T02:22:12.790Z,11.00
2022-10-13T02:24:40.491Z,11.10
2022-10-13T02:27:09.125Z,11.20
2022-10-13T02:29:49.083Z,11.20
2022-10-13T02:32:17.224Z,11.20
2022-10-13T02:34:46.550Z,11.20
2022-10-13T02:37:14.509Z,11.20
2022-10-13T02:39:42.209Z,11.20
2022-10-13T02:42:10.256Z,11.30
2022-10-13T02:44:37.923Z,11.40
2022-10-13T02:47:05.655Z,11.30
2022-10-13T02:49:33.324Z,11.20
2022-10-13T02:52:02.343Z,11.30
2022-10-13T02:54:30.042Z,11.30
2022-10-13T02:56:57.775Z,11.20
2022-10-13T02:59:25.458Z,11.30
2022-10-13T03:01:53.167Z,11.30
2022-10-13T03:04:21.101Z,11.30
2022-10-13T03:06:48.802Z,11.30
2022-10-13T03:09:17.837Z,11.30
2022-10-13T03:11:45.500Z,11.30
2022-10-13T03:14:13.184Z,11.30
2022-10-13T03:16:40.982Z,11.40
2022-10-13T03:19:08.727Z,11.40
2022-10-13T03:21:36.400Z,11.50
2022-10-13T03:24:05.569Z,11.40
2022-10-13T03:26:34.862Z,11.40
2022-10-13T03:29:02.707Z,11.50
2022-10-13T03:31:30.832Z,11.50
2022-10-13T03:33:58.489Z,11.50
2022-10-13T03:36:26.164Z,11.50
2022-10-13T03:38:53.848Z,11.50
2022-10-13T03:41:22.442Z,11.50
2022-10-13T03:43:51.453Z,11.50
2022-10-13T03:46:19.639Z,11.40
2022-10-13T03:48:47.773Z,11.40
2022-10-13T03:51:16.240Z,11.30
2022-10-13T03:53:43.953Z,11.30
2022-10-13T03:56:13.490Z,11.30
2022-10-13T03:58:41.157Z,11.40
2022-10-13T04:01:10.207Z,11.50
2022-10-13T04:03:37.863Z,11.50
2022-10-13T04:06:06.185Z,11.50
2022-10-13T04:08:34.497Z,11.30
2022-10-13T04:11:02.890Z,11.40
2022-10-13T04:13:30.549Z,11.30
2022-10-13T04:16:02.730Z,11.30
2022-10-13T04:18:31.947Z,11.30
2022-10-13T04:20:59.642Z,11.30
2022-10-13T04:23:27.363Z,11.30
2022-10-13T04:25:56.408Z,11.40
2022-10-13T04:28:24.136Z,11.50
2022-10-13T04:30:51.841Z,11.40
2022-10-13T04:33:19.532Z,11.40
2022-10-13T04:35:48.654Z,11.40
2022-10-13T04:38:16.511Z,11.40
2022-10-13T04:40:44.180Z,11.40
2022-10-13T04:43:11.854Z,11.30
2022-10-13T04:45:39.603Z,11.20
2022-10-13T04:48:07.420Z,11.10
2022-10-13T04:50:35.168Z,11.00
2022-10-13T04:53:04.380Z,10.90
2022-10-13T04:55:32.352Z,10.80
2022-10-13T04:58:00.066Z,10.80
2022-10-13T05:00:27.849Z,10.70
2022-10-13T05:02:55.595Z,10.70
2022-10-13T05:05:23.243Z,10.60
2022-10-13T05:07:50.915Z,10.50
2022-10-13T05:10:20.132Z,10.40
2022-10-13T05:12:47.807Z,10.40
2022-10-13T05:15:15.717Z,10.40
2022-10-13T05:17:45.334Z,10.40
2022-10-13T05:20:13.595Z,10.30
2022-10-13T05:22:41.283Z,10.30
2022-10-13T05:25:09.126Z,10.30
2022-10-13T05:27:38.155Z,10.20
2022-10-13T05:30:06.149Z,10.30
2022-10-13T05:32:35.748Z,10.20
2022-10-13T05:35:03.428Z,10.20
2022-10-13T05:37:31.185Z,10.20
2022-10-13T05:39:58.887Z,10.20
2022-10-13T05:42:26.554Z,10.10
2022-10-13T05:44:55.618Z,10.10
2022-10-13T05:47:28.016Z,10.00
2022-10-13T05:49:55.871Z,9.90
2022-10-13T05:52:24.560Z,9.80
2022-10-13T05:54:54.506Z,9.70
2022-10-13T05:57:23.600Z,9.50
2022-10-13T05:59:53.341Z,9.50
2022-10-13T06:02:24.072Z,9.50
2022-10-13T06:04:53.555Z,9.50
2022-10-13T06:07:21.347Z,9.50
2022-10-13T06:09:49.615Z,9.60
2022-10-13T06:12:17.652Z,9.60
2022-10-13T06:14:45.506Z,9.70
2022-10-13T06:17:13.225Z,9.70
2022-10-13T06:19:42.599Z,9.80
2022-10-13T06:22:10.424Z,9.80
2022-10-13T06:24:38.185Z,9.90
2022-10-13T06:27:05.866Z,9.90
2022-10-13T06:29:33.871Z,10.00
2022-10-13T06:32:01.568Z,10.00
2022-10-13T06:34:29.315Z,10.10
2022-10-13T06:36:58.299Z,10.20
2022-10-13T06:39:26.499Z,10.20
2022-10-13T06:41:55.252Z,10.30
2022-10-13T06:44:22.901Z,10.40
2022-10-13T06:46:50.611Z,10.50
2022-10-13T06:49:18.392Z,10.50
2022-10-13T06:51:46.136Z,10.60
2022-10-13T06:54:15.168Z,10.60
2022-10-13T06:56:43.124Z,10.70
2022-10-13T06:59:10.798Z,10.80
2022-10-13T07:01:41.489Z,10.80
2022-10-13T07:04:09.573Z,10.90
2022-10-13T07:06:37.246Z,11.00
2022-10-13T07:09:05.182Z,11.00
2022-10-13T07:11:34.373Z,11.10
2022-10-13T07:16:34.895Z,11.30
2022-10-13T07:19:02.551Z,11.30
2022-10-13T07:21:30.222Z,11.30
2022-10-13T07:23:58.080Z,11.40
2022-10-13T07:26:25.775Z,11.30
2022-10-13T07:28:54.873Z,11.30
2022-10-13T07:31:22.650Z,11.40
2022-10-13T07:33:51.046Z,11.30
2022-10-13T07:36:19.024Z,11.40
2022-10-13T07:38:46.871Z,11.50
2022-10-13T07:41:14.739Z,11.50
2022-10-13T07:43:42.463Z,11.40
2022-10-13T07:46:13.051Z,11.40
2022-10-13T07:48:41.096Z,11.40
2022-10-13T07:51:09.599Z,11.40
2022-10-13T07:53:37.264Z,11.50
2022-10-13T07:56:06.131Z,11.50
2022-10-13T07:58:34.067Z,11.60
2022-10-13T08:01:02.251Z,11.60
2022-10-13T08:03:32.613Z,11.70
2022-10-13T08:06:00.847Z,11.70
2022-10-13T08:08:28.709Z,11.80
2022-10-13T08:10:56.746Z,11.80
2022-10-13T08:13:24.415Z,11.90
2022-10-13T08:15:52.153Z,12.00
2022-10-13T08:18:19.872Z,12.00
2022-10-13T08:20:48.893Z,12.00
2022-10-13T08:23:16.585Z,12.10
2022-10-13T08:25:44.964Z,12.10
2022-10-13T08:28:15.809Z,12.20
2022-10-13T08:30:43.828Z,12.20
2022-10-13T08:33:11.634Z,12.20
2022-10-13T08:35:39.671Z,12.20
2022-10-13T08:38:08.991Z,12.30
2022-10-13T08:40:38.090Z,12.40
2022-10-13T08:43:06.624Z,12.50
2022-10-13T08:45:42.342Z,12.60
2022-10-13T08:48:12.527Z,12.70
2022-10-13T08:50:42.127Z,12.70
2022-10-13T08:53:14.997Z,12.80
2022-10-13T08:55:43.836Z,12.80
2022-10-13T08:58:13.667Z,12.80
2022-10-13T09:00:42.488Z,12.80
2022-10-13T09:03:20.420Z,12.80
2022-10-13T09:05:54.418Z,12.80
2022-10-13T09:08:23.910Z,12.80
2022-10-13T09:10:52.226Z,12.80
2022-10-13T09:13:20.223Z,12.90
2022-10-13T09:15:50.237Z,12.90
2022-10-13T09:18:18.021Z,12.90
2022-10-13T09:20:45.748Z,12.80
2022-10-13T09:23:18.509Z,12.70
2022-10-13T09:25:49.222Z,12.60
2022-10-13T09:28:19.469Z,12.60
2022-10-13T09:30:47.934Z,12.50
2022-10-13T09:33:17.756Z,12.40
2022-10-13T09:35:46.207Z,12.40
2022-10-13T09:38:15.187Z,12.30
2022-10-13T09:43:26.195Z,12.40
2022-10-13T09:45:54.113Z,12.40
2022-10-13T09:48:23.564Z,12.50
2022-10-13T09:50:53.072Z,12.50
2022-10-13T09:53:24.823Z,12.60
2022-10-13T09:56:07.405Z,12.60
2022-10-13T09:58:38.216Z,12.60
2022-10-13T10:01:06.234Z,12.60
2022-10-13T10:03:36.368Z,12.70
2022-10-13T10:06:06.275Z,12.80
2022-10-13T10:09:01.448Z,12.80
2022-10-13T10:11:28.995Z,12.70
2022-10-13T10:13:58.156Z,12.80
2022-10-13T10:16:31.239Z,12.70
2022-10-13T10:19:01.797Z,12.60
2022-10-13T10:21:32.294Z,12.50
2022-10-13T10:24:03.082Z,12.50
2022-10-13T10:26:39.442Z,12.40
2022-10-13T10:29:18.309Z,12.40
2022-10-13T10:31:57.070Z,12.40
2022-10-13T10:34:39.644Z,12.40
2022-10-13T10:37:14.282Z,12.40
2022-10-13T10:39:45.355Z,12.60
2022-10-13T10:42:20.747Z,12.70
2022-10-13T10:44:52.347Z,12.80
2022-10-13T10:47:23.403Z,12.90
2022-10-13T10:49:51.950Z,12.90
2022-10-13T10:52:24.913Z,13.00
2022-10-13T10:54:54.830Z,13.20
2022-10-13T10:57:25.539Z,13.40
2022-10-13T10:59:58.930Z,13.60
2022-10-13T11:02:35.360Z,13.80
2022-10-13T11:05:06.254Z,13.90
2022-10-13T11:07:57.519Z,14.10
2022-10-13T11:10:26.407Z,14.20
2022-10-13T11:13:22.149Z,14.40
2022-10-13T11:15:51.242Z,14.50
2022-10-13T11:18:37.666Z,14.60
2022-10-13T11:21:05.403Z,14.80
2022-10-13T11:23:34.767Z,15.00
2022-10-13T11:26:21.303Z,15.30
2022-10-13T11:28:49.131Z,15.50
2022-10-13T11:31:26.401Z,15.40
2022-10-13T11:33:58.751Z,15.50
2022-10-13T11:36:33.846Z,15.50
2022-10-13T11:39:05.544Z,15.50
2022-10-13T11:41:36.775Z,15.50
2022-10-13T11:44:05.730Z,15.40
2022-10-13T11:46:47.247Z,15.40
2022-10-13T11:49:20.447Z,15.30
2022-10-13T11:51:56.516Z,15.30
2022-10-13T11:54:28.775Z,15.40
2022-10-13T11:56:57.845Z,15.30
2022-10-13T11:59:27.070Z,15.20
2022-10-13T12:01:57.139Z,15.10
2022-10-13T12:04:25.770Z,15.00
2022-10-13T12:06:55.634Z,14.90
2022-10-13T12:09:23.788Z,14.80
2022-10-13T12:11:57.414Z,14.70
2022-10-13T12:14:27.917Z,14.60
2022-10-13T12:16:57.668Z,14.50
2022-10-13T12:19:26.765Z,14.50
2022-10-13T12:21:55.077Z,14.60
2022-10-13T12:24:23.520Z,14.60
2022-10-13T12:26:51.301Z,14.60
2022-10-13T12:29:20.566Z,14.70
2022-10-13T12:31:49.378Z,14.70
2022-10-13T12:34:20.983Z,14.80
2022-10-13T12:39:26.850Z,14.70
2022-10-13T12:41:55.283Z,14.70
2022-10-13T12:44:24.710Z,14.70
2022-10-13T12:46:53.370Z,14.70
2022-10-13T12:49:23.815Z,14.80
2022-10-13T12:51:53.224Z,14.90
2022-10-13T12:54:23.439Z,14.80
2022-10-13T12:56:55.350Z,14.90
2022-10-13T12:59:25.031Z,14.90
2022-10-13T13:01:57.237Z,15.00
2022-10-13T13:04:43.195Z,15.00
2022-10-13T13:07:26.324Z,14.90
2022-10-13T13:10:00.948Z,14.80
2022-10-13T13:12:29.283Z,14.80
2022-10-13T13:14:57.473Z,14.90
2022-10-13T13:17:52.893Z,14.80
2022-10-13T13:20:23.158Z,14.90
2022-10-13T13:22:51.694Z,14.90
2022-10-13T13:25:19.481Z,14.90
2022-10-13T13:27:47.191Z,14.80
2022-10-13T13:30:16.514Z,14.90
2022-10-13T13:32:44.178Z,15.00
2022-10-13T13:35:12.144Z,15.00
2022-10-13T13:37:42.582Z,15.10
2022-10-13T13:40:16.033Z,15.20
2022-10-13T13:42:43.775Z,15.20
2022-10-13T13:45:13.262Z,15.30
2022-10-13T13:47:40.963Z,15.30
2022-10-13T13:50:14.636Z,15.40
2022-10-13T13:52:43.640Z,15.50
2022-10-13T13:55:11.342Z,15.40
2022-10-13T13:57:39.030Z,15.40
2022-10-13T14:00:07.480Z,15.40
2022-10-13T14:02:35.181Z,15.40
2022-10-13T14:05:02.878Z,15.40
2022-10-13T14:07:30.521Z,15.50
2022-10-13T14:10:01.985Z,15.50
2022-10-13T14:12:30.365Z,15.50
2022-10-13T14:14:58.429Z,15.60
2022-10-13T14:17:26.392Z,15.50
2022-10-13T14:19:54.056Z,15.50
2022-10-13T14:22:22.367Z,15.50
2022-10-13T14:24:50.404Z,15.40
2022-10-13T14:27:19.462Z,15.40
2022-10-13T14:29:47.172Z,15.30
2022-10-13T14:32:14.954Z,15.30
2022-10-13T14:34:42.641Z,15.30
2022-10-13T14:37:10.322Z,15.30
2022-10-13T14:39:37.978Z,15.30
2022-10-13T14:42:05.705Z,15.40
2022-10-13T14:44:34.727Z,15.40
2022-10-13T14:47:02.386Z,15.40
2022-10-13T14:49:30.097Z,15.40
2022-10-13T14:51:57.762Z,15.40
2022-10-13T14:54:25.595Z,15.50
2022-10-13T14:56:53.358Z,15.50
2022-10-13T14:59:21.076Z,15.50
2022-10-13T15:01:50.464Z,15.60
2022-10-13T15:04:18.254Z,15.50
2022-10-13T15:06:45.939Z,15.60
2022-10-13T15:09:13.629Z,15.50
2022-10-13T15:11:41.327Z,15.50
2022-10-13T15:14:09.764Z,15.60
2022-10-13T15:16:37.995Z,15.50
2022-10-13T15:19:07.149Z,15.40
2022-10-13T15:21:34.821Z,15.30
2022-10-13T15:24:02.568Z,15.40
2022-10-13T15:26:30.259Z,15.40
2022-10-13T15:28:58.000Z,15.40
2022-10-13T15:31:25.755Z,15.40
2022-10-13T15:33:54.327Z,15.40
2022-10-13T15:36:23.783Z,15.30
2022-10-13T15:38:51.956Z,15.20
2022-10-13T15:41:19.803Z,15.10
2022-10-13T15:43:47.870Z,15.00
2022-10-13T15:46:21.659Z,15.00
2022-10-13T15:48:49.757Z,14.90
2022-10-13T15:51:19.354Z,14.90
2022-10-13T15:53:48.785Z,14.80
2022-10-13T15:56:16.857Z,14.70
2022-10-13T15:58:45.407Z,14.70
2022-10-13T16:01:14.029Z,14.70
2022-10-13T16:03:41.803Z,14.70
2022-10-13T16:06:10.669Z,14.60
2022-10-13T16:08:39.476Z,14.70
2022-10-13T16:11:12.522Z,14.60
2022-10-13T16:13:40.412Z,14.60
2022-10-13T16:16:10.945Z,14.60
2022-10-13T16:18:40.086Z,14.60
2022-10-13T16:21:17.303Z,14.60
2022-10-13T16:23:46.182Z,14.60
2022-10-13T16:26:15.703Z,14.60
2022-10-13T16:28:43.458Z,14.60
2022-10-13T16:31:13.309Z,14.60
2022-10-13T16:33:41.277Z,14.60
2022-10-13T16:36:10.039Z,14.60
2022-10-13T16:38:38.027Z,14.60
2022-10-13T16:41:05.999Z,14.70
2022-10-13T16:43:35.142Z,14.70
2022-10-13T16:46:03.643Z,14.70
2022-10-13T16:48:32.143Z,14.70
2022-10-13T16:51:00.807Z,14.70
2022-10-13T16:53:28.534Z,14.70
2022-10-13T16:55:56.202Z,14.60
2022-10-13T16:58:23.868Z,14.60
2022-10-13T17:00:52.995Z,14.60
2022-10-13T17:03:20.726Z,14.50
2022-10-13T17:05:48.372Z,14.60
2022-10-13T17:08:16.092Z,14.60
2022-10-13T17:10:43.778Z,14.60
2022-10-13T17:13:11.444Z,14.60
2022-10-13T17:15:39.145Z,14.60
2022-10-13T17:18:08.208Z,14.60
2022-10-13T17:20:35.887Z,14.60
2022-10-13T17:23:03.571Z,14.60
2022-10-13T17:25:31.228Z,14.60
2022-10-13T17:27:58.900Z,14.60
2022-10-13T17:30:26.566Z,14.60
2022-10-13T17:32:54.244Z,14.60
2022-10-13T17:35:23.273Z,14.60
2022-10-13T17:37:51.063Z,14.60
2022-10-13T17:40:18.817Z,14.50
2022-10-13T17:42:46.485Z,14.50
2022-10-13T17:45:14.192Z,14.50
2022-10-13T17:47:47.746Z,14.40
2022-10-13T17:50:15.489Z,14.40
2022-10-13T17:52:44.506Z,14.40
2022-10-13T17:55:12.222Z,14.40
2022-10-13T17:57:39.936Z,14.40
2022-10-13T18:00:08.216Z,14.40
2022-10-13T18:02:35.889Z,14.40
2022-10-13T18:05:03.603Z,14.40
2022-10-13T18:07:31.274Z,14.40
2022-10-13T18:10:00.303Z,14.40
2022-10-13T18:12:28.003Z,14.50
2022-10-13T18:14:55.646Z,14.50
2022-10-13T18:17:23.614Z,14.40
2022-10-13T18:19:53.853Z,14.50
2022-10-13T18:22:21.794Z,14.40
2022-10-13T18:24:53.291Z,14.50
2022-10-13T18:27:25.140Z,14.40
2022-10-13T18:29:52.904Z,14.40
2022-10-13T18:32:20.579Z,14.40
2022-10-13T18:34:48.288Z,14.30
2022-10-13T18:37:16.280Z,14.30
2022-10-13T18:39:44.635Z,14.30
2022-10-13T18:42:12.480Z,14.30
2022-10-13T18:44:41.507Z,14.30
2022-10-13T18:47:09.181Z,14.30
2022-10-13T18:49:37.201Z,14.30
2022-10-13T18:52:05.013Z,14.30
2022-10-13T18:54:32.719Z,14.30
2022-10-13T18:57:00.408Z,14.30
2022-10-13T18:59:28.123Z,14.30
2022-10-13T19:01:57.220Z,14.30
2022-10-13T19:04:26.164Z,14.30
2022-10-13T19:06:53.851Z,14.30
2022-10-13T19:09:21.611Z,14.20
2022-10-13T19:11:49.299Z,14.20
2022-10-13T19:14:16.979Z,14.10
2022-10-13T19:16:44.776Z,14.20
2022-10-13T19:19:14.084Z,14.20
2022-10-13T19:21:42.073Z,14.10
2022-10-13T19:24:10.276Z,14.10
2022-10-13T19:26:38.540Z,14.20
2022-10-13T19:29:08.026Z,14.10
2022-10-13T19:31:36.523Z,14.10
2022-10-13T19:34:04.965Z,14.10
2022-10-13T19:36:35.180Z,14.00
2022-10-13T19:39:03.527Z,14.00
2022-10-13T19:41:32.535Z,14.00
2022-10-13T19:44:00.252Z,14.00
2022-10-13T19:46:28.036Z,14.00
2022-10-13T19:48:55.760Z,14.10
2022-10-13T19:51:23.421Z,14.00
2022-10-13T19:53:52.471Z,14.00
2022-10-13T19:56:22.389Z,14.00
2022-10-13T19:58:50.090Z,14.00
2022-10-13T20:01:18.948Z,14.00
2022-10-13T20:03:46.907Z,14.00
2022-10-13T20:06:14.939Z,13.90
2022-10-13T20:08:42.846Z,13.90
2022-10-13T20:11:12.824Z,13.90
2022-10-13T20:13:40.487Z,13.80
2022-10-13T20:16:08.971Z,13.90
2022-10-13T20:18:37.058Z,13.90
2022-10-13T20:21:05.432Z,13.90
2022-10-13T20:23:33.410Z,13.80
2022-10-13T20:26:02.850Z,13.80
2022-10-13T20:28:31.997Z,13.80
2022-10-13T20:31:02.248Z,13.70
2022-10-13T20:33:30.135Z,13.80
2022-10-13T20:35:59.132Z,13.80
2022-10-13T20:38:26.894Z,13.80
2022-10-13T20:40:54.533Z,13.70
2022-10-13T20:43:25.636Z,13.70
2022-10-13T20:46:00.694Z,13.70
2022-10-13T20:48:51.106Z,13.70
2022-10-13T20:51:19.900Z,13.60
2022-10-13T20:53:48.392Z,13.60
2022-10-13T20:56:16.671Z,13.60
2022-10-13T20:58:44.815Z,13.60
2022-10-13T21:01:13.972Z,13.60
2022-10-13T21:03:41.847Z,13.60
2022-10-13T21:06:10.812Z,13.60
2022-10-13T21:08:38.498Z,13.60
2022-10-13T21:11:07.087Z,13.60
2022-10-13T21:13:34.821Z,13.60
2022-10-13T21:16:07.132Z,13.60
2022-10-13T21:18:36.212Z,13.60
2022-10-13T21:21:04.645Z,13.60
2022-10-13T21:23:32.347Z,13.60
2022-10-13T21:26:01.611Z,13.60
2022-10-13T21:28:29.778Z,13.60
2022-10-13T21:31:01.490Z,13.60
2022-10-13T21:33:29.245Z,13.60
2022-10-13T21:35:58.504Z,13.60
2022-10-13T21:38:26.293Z,13.60
2022-10-13T21:40:54.189Z,13.60
2022-10-13T21:43:21.867Z,13.70
2022-10-13T21:45:49.594Z,13.70
2022-10-13T21:48:17.262Z,13.70
2022-10-13T21:50:44.946Z,13.70
2022-10-13T21:53:15.420Z,13.70
2022-10-13T21:55:43.126Z,13.60
2022-10-13T21:58:10.775Z,13.70
2022-10-13T22:00:38.505Z,13.70
2022-10-13T22:03:06.234Z,13.70
2022-10-13T22:05:35.393Z,13.80
2022-10-13T22:08:03.079Z,13.90
2022-10-13T22:10:32.086Z,13.90
2022-10-13T22:12:59.747Z,13.90
2022-10-13T22:15:27.431Z,14.00
2022-10-13T22:17:55.139Z,14.00
2022-10-13T22:20:22.808Z,14.10
2022-10-13T22:22:50.493Z,14.10
2022-10-13T22:25:18.236Z,14.20
2022-10-13T22:27:47.251Z,14.20
2022-10-13T22:30:14.952Z,14.30
2022-10-13T22:32:42.610Z,14.30
2022-10-13T22:35:10.385Z,14.30
2022-10-13T22:37:38.067Z,14.30
2022-10-13T22:40:08.545Z,14.40
2022-10-13T22:42:36.194Z,14.40
2022-10-13T22:45:05.745Z,14.40
2022-10-13T22:47:33.444Z,14.40
2022-10-13T22:50:01.106Z,14.40
2022-10-13T22:52:28.796Z,14.40
2022-10-13T22:54:56.439Z,14.40
2022-10-13T22:57:24.311Z,14.30
2022-10-13T22:59:52.071Z,14.30
2022-10-13T23:02:21.081Z,14.40
2022-10-13T23:04:49.533Z,14.40
2022-10-13T23:07:17.243Z,14.40
2022-10-13T23:09:44.919Z,14.40
2022-10-13T23:12:12.587Z,14.40
2022-10-13T23:14:40.487Z,14.40
2022-10-13T23:17:08.159Z,14.40
2022-10-13T23:19:37.154Z,14.30
2022-10-13T23:22:04.834Z,14.40
2022-10-13T23:24:32.561Z,14.30
2022-10-13T23:27:01.091Z,14.40
2022-10-13T23:29:28.973Z,14.30
2022-10-13T23:31:56.634Z,14.30
2022-10-13T23:34:24.356Z,14.30
2022-10-13T23:36:53.397Z,14.20
2022-10-13T23:39:21.067Z,14.20
2022-10-13T23:41:49.049Z,14.10
2022-10-13T23:44:16.834Z,14.10
2022-10-13T23:46:44.563Z,14.10
2022-10-13T23:49:12.780Z,14.10
2022-10-13T23:51:43.090Z,14.10
2022-10-13T23:54:12.219Z,14.10
2022-10-13T23:56:39.923Z,14.20
2022-10-13T23:59:07.726Z,14.20
